Time;durP1;ratioP1;P1;durP2;ratioP2;P2;SDS_P1;SDS_P2;PMS_P1;PMS_P2;Temp;Humidity;BMP_temperature;BMP_pressure;BME280_temperature;BME280_humidity;BME280_pressure;Samples;Min_cycle;Max_cycle;Signal;HPM_P1;HPM_P2
2023/01/16 00:01:49;;;;;;;2.65;0.82;;;;;;;;;;5025780;28;20199;-80
2023/01/16 00:04:15;;;;;;;1.08;0.60;;;;;;;;;;5004038;28;20037;-80
2023/01/16 00:06:40;;;;;;;1.23;0.60;;;;;;;;;;5020022;28;20033;-80
2023/01/16 00:09:07;;;;;;;1.25;0.40;;;;;;;;;;5025172;28;20706;-80
2023/01/16 00:11:33;;;;;;;5.50;1.17;;;;;;;;;;5024101;28;20175;-80
2023/01/16 00:13:59;;;;;;;0.77;0.50;;;;;;;;;;5007928;28;20604;-79
2023/01/16 00:16:28;;;;;;;2.70;0.70;;;;;;;;;;5022918;28;20030;-80
2023/01/16 00:18:54;;;;;;;2.90;0.55;;;;;;;;;;5007598;28;20049;-80
2023/01/16 00:21:20;;;;;;;3.10;0.63;;;;;;;;;;5002538;28;20042;-80
2023/01/16 00:23:46;;;;;;;2.20;0.70;;;;;;;;;;5004348;28;20041;-80
2023/01/16 00:26:12;;;;;;;2.60;0.52;;;;;;;;;;5005080;28;20030;-80
2023/01/16 00:28:38;;;;;;;1.33;0.60;;;;;;;;;;5004843;28;20025;-80
2023/01/16 00:31:06;;;;;;;1.40;0.70;;;;;;;;;;4988194;28;20455;-80
2023/01/16 00:33:35;;;;;;;0.82;0.52;;;;;;;;;;4967672;28;20107;-80
2023/01/16 00:36:01;;;;;;;1.10;0.80;;;;;;;;;;4985279;28;20567;-80
2023/01/16 00:38:26;;;;;;;4.57;0.65;;;;;;;;;;4967473;28;20161;-80
2023/01/16 00:40:52;;;;;;;7.63;0.88;;;;;;;;;;4985249;28;20026;-80
2023/01/16 00:43:17;;;;;;;4.05;0.80;;;;;;;;;;4984527;28;20058;-80
2023/01/16 00:45:43;;;;;;;1.50;0.88;;;;;;;;;;4984996;28;20124;-80
2023/01/16 00:48:08;;;;;;;1.83;0.98;;;;;;;;;;4967696;28;20045;-80
2023/01/16 00:50:34;;;;;;;11.02;0.68;;;;;;;;;;4984389;28;20042;-80
2023/01/16 00:52:59;;;;;;;4.53;0.57;;;;;;;;;;4985518;28;20187;-80
2023/01/16 00:55:24;;;;;;;4.82;0.77;;;;;;;;;;4968423;28;20054;-79
2023/01/16 00:57:50;;;;;;;1.92;1.08;;;;;;;;;;4995910;28;20086;-79
2023/01/16 01:00:19;;;;;;;1.35;0.90;;;;;;;;;;5002936;28;20044;-81
2023/01/16 01:02:45;;;;;;;1.10;1.00;;;;;;;;;;5006002;28;20094;-80
2023/01/16 01:05:10;;;;;;;3.10;1.13;;;;;;;;;;4986817;28;20022;-80
2023/01/16 01:07:35;;;;;;;3.28;1.60;;;;;;;;;;5005330;28;20833;-79
2023/01/16 01:10:01;;;;;;;4.10;1.17;;;;;;;;;;5005468;28;20042;-80
2023/01/16 01:12:26;;;;;;;2.88;0.82;;;;;;;;;;4987173;28;20042;-80
2023/01/16 01:14:52;;;;;;;3.85;1.60;;;;;;;;;;4986964;28;20029;-79
2023/01/16 01:17:17;;;;;;;2.63;1.55;;;;;;;;;;5008728;28;20045;-79
2023/01/16 01:19:42;;;;;;;2.53;1.35;;;;;;;;;;5004648;28;20022;-80
2023/01/16 01:22:08;;;;;;;0.50;0.50;;;;;;;;;;4982694;28;20052;-80
2023/01/16 01:24:33;;;;;;;2.42;0.80;;;;;;;;;;4986135;28;20035;-80
2023/01/16 01:26:58;;;;;;;1.35;0.90;;;;;;;;;;4984930;28;20100;-80
2023/01/16 01:29:24;;;;;;;2.72;1.40;;;;;;;;;;4982481;28;20041;-80
2023/01/16 01:31:49;;;;;;;4.05;1.13;;;;;;;;;;5004023;28;20234;-80
2023/01/16 01:34:14;;;;;;;9.55;1.48;;;;;;;;;;4985385;28;20030;-80
2023/01/16 01:36:39;;;;;;;4.00;1.20;;;;;;;;;;4984482;28;20037;-80
2023/01/16 01:39:05;;;;;;;1.90;1.02;;;;;;;;;;4985436;28;20129;-79
2023/01/16 01:41:30;;;;;;;6.03;1.27;;;;;;;;;;5010961;28;20101;-80
2023/01/16 01:43:57;;;;;;;1.20;1.10;;;;;;;;;;5043273;28;20024;-80
2023/01/16 01:46:29;;;;;;;4.50;1.40;;;;;;;;;;5024796;28;20702;-80
2023/01/16 01:49:03;;;;;;;1.42;0.70;;;;;;;;;;5022494;28;20053;-79
2023/01/16 01:51:34;;;;;;;5.90;1.50;;;;;;;;;;5002112;28;20515;-79
2023/01/16 01:54:04;;;;;;;1.27;1.15;;;;;;;;;;4998960;28;20113;-80
2023/01/16 01:56:39;;;;;;;3.88;0.95;;;;;;;;;;5003870;28;20057;-80
2023/01/16 01:59:17;;;;;;;0.85;0.60;;;;;;;;;;5003167;28;20025;-79
2023/01/16 02:01:43;;;;;;;1.45;0.60;;;;;;;;;;4985013;28;20662;-80
2023/01/16 02:04:20;;;;;;;1.52;0.80;;;;;;;;;;4987615;28;20503;-80
2023/01/16 02:06:50;;;;;;;4.57;1.27;;;;;;;;;;4985641;28;20100;-80
2023/01/16 02:09:16;;;;;;;4.28;0.70;;;;;;;;;;5003795;28;20076;-80
2023/01/16 02:14:19;;;;;;;0.68;0.57;;;;;;;;;;5610463;22;20052;-79
2023/01/16 02:22:27;;;;;;;8.65;1.27;;;;;;;;;;4978540;28;20050;-78
2023/01/16 02:25:03;;;;;;;;;;;;;;;;;;4967593;28;20052;-77
2023/01/16 02:27:36;;;;;;;0.70;0.70;;;;;;;;;;4967167;28;20485;-77
2023/01/16 02:30:17;;;;;;;;;;;;;;;;;;4966872;28;20238;-77
2023/01/16 02:32:59;;;;;;;2.95;0.57;;;;;;;;;;4966832;28;20346;-77
2023/01/16 02:35:33;;;;;;;1.77;0.60;;;;;;;;;;4983745;28;20112;-77
2023/01/16 02:38:10;;;;;;;2.70;1.00;;;;;;;;;;4983072;28;20023;-77
2023/01/16 02:41:02;;;;;;;2.78;0.45;;;;;;;;;;4981349;28;20523;-77
2023/01/16 02:43:57;;;;;;;1.20;0.50;;;;;;;;;;4966215;28;20039;-77
2023/01/16 02:46:42;;;;;;;0.60;0.57;;;;;;;;;;4965141;28;20050;-77
2023/01/16 02:49:27;;;;;;;2.85;0.55;;;;;;;;;;4965682;28;20049;-77
2023/01/16 02:52:09;;;;;;;1.23;0.47;;;;;;;;;;4965943;28;20042;-77
2023/01/16 02:55:03;;;;;;;4.40;0.70;;;;;;;;;;4984571;28;20034;-77
2023/01/16 02:57:50;;;;;;;1.40;0.63;;;;;;;;;;4970764;28;20100;-77
2023/01/16 03:00:19;;;;;;;2.22;0.90;;;;;;;;;;4964450;28;20034;-77
2023/01/16 03:02:45;;;;;;;1.40;0.63;;;;;;;;;;4963259;28;20034;-77
2023/01/16 03:05:11;;;;;;;2.50;0.77;;;;;;;;;;4985239;28;20027;-77
2023/01/16 03:07:52;;;;;;;2.58;0.90;;;;;;;;;;4967231;28;20029;-77
2023/01/16 03:10:26;;;;;;;3.45;0.95;;;;;;;;;;4985041;28;20049;-77
2023/01/16 03:13:27;;;;;;;3.05;0.82;;;;;;;;;;4984741;28;20092;-77
2023/01/16 03:16:19;;;;;;;6.07;1.02;;;;;;;;;;4964468;28;20038;-77
2023/01/16 03:18:52;;;;;;;1.02;0.65;;;;;;;;;;4984656;28;20541;-77
2023/01/16 03:22:00;;;;;;;2.42;1.05;;;;;;;;;;4974792;28;20046;-78
2023/01/16 03:24:48;;;;;;;11.68;2.80;;;;;;;;;;4950281;28;20066;-78
2023/01/16 03:27:34;;;;;;;5.93;2.42;;;;;;;;;;4971467;28;20943;-77
2023/01/16 03:30:25;;;;;;;13.13;2.90;;;;;;;;;;4982451;28;20051;-78
2023/01/16 03:32:57;;;;;;;1.55;0.88;;;;;;;;;;4968730;28;20043;-78
2023/01/16 03:35:36;;;;;;;6.20;1.92;;;;;;;;;;4970689;28;20781;-77
2023/01/16 03:38:06;;;;;;;6.93;1.23;;;;;;;;;;4988948;28;20722;-77
2023/01/16 03:40:35;;;;;;;5.88;1.27;;;;;;;;;;4988360;28;20586;-77
2023/01/16 03:43:07;;;;;;;5.50;1.20;;;;;;;;;;4970706;28;20034;-77
2023/01/16 03:45:39;;;;;;;2.25;0.70;;;;;;;;;;4985622;28;20073;-77
2023/01/16 03:48:21;;;;;;;2.00;0.50;;;;;;;;;;4967265;28;20046;-78
2023/01/16 03:50:52;;;;;;;3.78;0.60;;;;;;;;;;4971682;28;20043;-77
2023/01/16 03:53:22;;;;;;;2.08;0.73;;;;;;;;;;4985019;28;20111;-77
2023/01/16 03:55:50;;;;;;;1.30;0.50;;;;;;;;;;4970104;28;20540;-77
2023/01/16 03:58:31;;;;;;;6.45;1.20;;;;;;;;;;4968830;28;20046;-78
2023/01/16 04:01:08;;;;;;;2.80;1.60;;;;;;;;;;4987636;28;20049;-77
2023/01/16 04:03:58;;;;;;;4.70;0.80;;;;;;;;;;4988370;28;20043;-77
2023/01/16 04:06:45;;;;;;;2.10;0.50;;;;;;;;;;4970930;28;20066;-77
2023/01/16 04:09:18;;;;;;;5.60;0.90;;;;;;;;;;4960633;28;20065;-77
2023/01/16 04:11:45;;;;;;;5.00;1.07;;;;;;;;;;4970877;28;20038;-77
2023/01/16 04:14:14;;;;;;;2.10;0.60;;;;;;;;;;4987183;28;20109;-77
2023/01/16 04:16:42;;;;;;;10.02;1.42;;;;;;;;;;4988929;28;20037;-77
2023/01/16 04:19:12;;;;;;;5.25;1.05;;;;;;;;;;4969031;28;20035;-77
2023/01/16 04:21:42;;;;;;;2.05;0.80;;;;;;;;;;4996741;28;20034;-77
2023/01/16 04:24:08;;;;;;;2.55;0.70;;;;;;;;;;4986915;28;20053;-77
2023/01/16 04:26:33;;;;;;;6.63;1.15;;;;;;;;;;4988159;28;20038;-77
2023/01/16 04:28:58;;;;;;;5.38;0.70;;;;;;;;;;4997593;28;20022;-77
2023/01/16 04:31:24;;;;;;;4.05;0.70;;;;;;;;;;5007659;28;20084;-77
2023/01/16 04:33:50;;;;;;;5.90;1.10;;;;;;;;;;5005995;28;20421;-77
2023/01/16 04:36:16;;;;;;;1.10;0.50;;;;;;;;;;5005287;28;20168;-77
2023/01/16 04:38:41;;;;;;;0.40;0.40;;;;;;;;;;5007154;28;20037;-76
2023/01/16 04:41:06;;;;;;;3.75;0.63;;;;;;;;;;5006254;28;20418;-77
2023/01/16 04:43:32;;;;;;;2.22;0.65;;;;;;;;;;5003062;28;20021;-77
2023/01/16 04:45:57;;;;;;;3.20;0.88;;;;;;;;;;5007479;28;20038;-77
2023/01/16 04:48:22;;;;;;;2.47;0.52;;;;;;;;;;5006674;28;20030;-77
2023/01/16 04:50:49;;;;;;;3.33;0.65;;;;;;;;;;5006100;28;20033;-77
2023/01/16 04:53:14;;;;;;;4.13;0.68;;;;;;;;;;5007347;28;20024;-77
2023/01/16 04:55:39;;;;;;;1.23;0.75;;;;;;;;;;5007147;28;20010;-77
2023/01/16 04:58:05;;;;;;;0.50;0.50;;;;;;;;;;5006570;28;20033;-77
2023/01/16 05:00:30;;;;;;;1.63;0.40;;;;;;;;;;5005321;28;20036;-77
2023/01/16 05:02:55;;;;;;;1.80;0.60;;;;;;;;;;4997311;28;20030;-77
2023/01/16 05:05:21;;;;;;;0.60;0.60;;;;;;;;;;5004161;28;20045;-76
2023/01/16 05:08:15;;;;;;;1.45;0.45;;;;;;;;;;5007391;28;20028;-76
2023/01/16 05:10:31;;;;;;;1.63;0.30;;;;;;;;;;5007250;28;20073;-76
2023/01/16 05:12:57;;;;;;;1.10;0.40;;;;;;;;;;5002385;28;20128;-76
2023/01/16 05:15:22;;;;;;;0.88;0.30;;;;;;;;;;5006356;28;20054;-76
2023/01/16 05:17:47;;;;;;;0.63;0.40;;;;;;;;;;5006874;28;20050;-76
2023/01/16 05:20:13;;;;;;;1.30;0.65;;;;;;;;;;5006754;28;20160;-76
2023/01/16 05:22:38;;;;;;;1.35;0.38;;;;;;;;;;4997795;28;20061;-76
2023/01/16 05:25:04;;;;;;;0.35;0.35;;;;;;;;;;4994231;28;20056;-76
2023/01/16 05:27:29;;;;;;;0.20;0.20;;;;;;;;;;5004767;28;20042;-76
2023/01/16 05:29:55;;;;;;;0.17;0.17;;;;;;;;;;5006003;28;20029;-76
2023/01/16 05:32:20;;;;;;;0.40;0.40;;;;;;;;;;5004872;28;20581;-76
2023/01/16 05:34:48;;;;;;;0.20;0.20;;;;;;;;;;5006464;28;20662;-76
2023/01/16 05:37:14;;;;;;;1.55;0.75;;;;;;;;;;5005282;28;20411;-77
2023/01/16 05:39:39;;;;;;;0.20;0.20;;;;;;;;;;4997706;28;20541;-76
2023/01/16 05:42:20;;;;;;;0.20;0.20;;;;;;;;;;5004220;28;20116;-76
2023/01/16 05:44:46;;;;;;;0.10;0.10;;;;;;;;;;5004924;28;20561;-76
2023/01/16 05:47:11;;;;;;;6.07;0.70;;;;;;;;;;5003938;28;20104;-76
2023/01/16 05:49:37;;;;;;;0.10;0.10;;;;;;;;;;5006670;28;20129;-76
2023/01/16 05:52:02;;;;;;;0.85;0.52;;;;;;;;;;5006012;28;20099;-76
2023/01/16 05:54:28;;;;;;;1.25;0.77;;;;;;;;;;5005684;28;20034;-76
2023/01/16 05:56:53;;;;;;;0.63;0.32;;;;;;;;;;5005105;28;20046;-76
2023/01/16 05:59:18;;;;;;;1.75;0.38;;;;;;;;;;5005367;28;20045;-76
2023/01/16 06:01:43;;;;;;;0.63;0.60;;;;;;;;;;5004669;28;20167;-76
2023/01/16 06:04:09;;;;;;;0.50;0.50;;;;;;;;;;5006880;28;20529;-76
2023/01/16 06:06:34;;;;;;;1.38;0.73;;;;;;;;;;5006477;28;20048;-75
2023/01/16 06:08:59;;;;;;;0.63;0.50;;;;;;;;;;5006025;28;20172;-76
2023/01/16 06:11:25;;;;;;;0.77;0.55;;;;;;;;;;5004969;28;20029;-76
2023/01/16 06:13:50;;;;;;;0.50;0.50;;;;;;;;;;5005236;28;20041;-77
2023/01/16 06:16:15;;;;;;;1.60;0.35;;;;;;;;;;5005981;28;20061;-77
2023/01/16 06:18:41;;;;;;;0.43;0.43;;;;;;;;;;5005055;28;20046;-78
2023/01/16 06:21:06;;;;;;;0.10;0.10;;;;;;;;;;5003441;28;20037;-77
2023/01/16 06:23:31;;;;;;;0.28;0.25;;;;;;;;;;4989764;28;20078;-76
2023/01/16 06:26:01;;;;;;;0.10;0.10;;;;;;;;;;4992543;28;20390;-75
2023/01/16 06:28:26;;;;;;;0.10;0.10;;;;;;;;;;5009212;28;20042;-77
2023/01/16 06:30:52;;;;;;;0.20;0.20;;;;;;;;;;5002227;28;20042;-76
2023/01/16 06:33:17;;;;;;;0.10;0.10;;;;;;;;;;5001724;28;20037;-77
2023/01/16 06:35:43;;;;;;;0.45;0.20;;;;;;;;;;4996475;28;20045;-77
2023/01/16 06:38:08;;;;;;;0.20;0.20;;;;;;;;;;5004449;28;20517;-78
2023/01/16 06:40:34;;;;;;;0.22;0.22;;;;;;;;;;5004569;28;20041;-77
2023/01/16 06:42:59;;;;;;;3.10;0.60;;;;;;;;;;5006071;28;20057;-77
2023/01/16 06:45:24;;;;;;;1.42;0.30;;;;;;;;;;5003589;28;20049;-77
2023/01/16 06:47:53;;;;;;;0.10;0.10;;;;;;;;;;5002266;28;20096;-77
2023/01/16 06:50:19;;;;;;;3.47;0.32;;;;;;;;;;5004028;28;20040;-77
2023/01/16 06:52:44;;;;;;;2.88;1.00;;;;;;;;;;4995430;28;20041;-78
2023/01/16 06:55:09;;;;;;;0.30;0.30;;;;;;;;;;4997727;28;20559;-77
2023/01/16 06:57:37;;;;;;;0.38;0.30;;;;;;;;;;4995049;28;20045;-78
2023/01/16 07:00:04;;;;;;;0.40;0.30;;;;;;;;;;5003025;28;20518;-79
2023/01/16 07:02:29;;;;;;;0.63;0.38;;;;;;;;;;4987494;28;20104;-81
2023/01/16 07:04:54;;;;;;;0.20;0.20;;;;;;;;;;4987211;28;20027;-81
2023/01/16 07:07:20;;;;;;;0.22;0.22;;;;;;;;;;4987966;28;20062;-82
2023/01/16 07:09:45;;;;;;;0.38;0.38;;;;;;;;;;4989364;28;20035;-81
2023/01/16 07:12:10;;;;;;;0.80;0.38;;;;;;;;;;4998867;28;20045;-81
2023/01/16 07:22:48;;;;;;;0.45;0.35;;;;;;;;;;5010324;28;20359;-82
2023/01/16 07:25:17;;;;;;;0.57;0.38;;;;;;;;;;5010373;28;20120;-82
2023/01/16 07:27:46;;;;;;;1.40;0.20;;;;;;;;;;5008963;28;20472;-81
2023/01/16 07:30:12;;;;;;;0.28;0.28;;;;;;;;;;5007447;28;20037;-81
2023/01/16 07:32:38;;;;;;;0.30;0.30;;;;;;;;;;5009633;28;20088;-82
2023/01/16 07:35:04;;;;;;;0.22;0.20;;;;;;;;;;5008251;28;20096;-81
2023/01/16 07:37:29;;;;;;;0.30;0.30;;;;;;;;;;5007934;28;20177;-81
2023/01/16 07:39:54;;;;;;;0.25;0.25;;;;;;;;;;5009101;28;20124;-81
2023/01/16 07:42:20;;;;;;;0.22;0.22;;;;;;;;;;5027955;28;20065;-81
2023/01/16 07:44:47;;;;;;;0.50;0.43;;;;;;;;;;5026357;28;20457;-81
2023/01/16 07:47:12;;;;;;;0.65;0.47;;;;;;;;;;5027545;28;20045;-81
2023/01/16 07:49:38;;;;;;;0.43;0.30;;;;;;;;;;5027287;28;20044;-82
2023/01/16 07:52:03;;;;;;;0.20;0.20;;;;;;;;;;5016950;28;20882;-81
2023/01/16 07:54:28;;;;;;;0.38;0.38;;;;;;;;;;4988481;28;20034;-82
2023/01/16 07:56:54;;;;;;;0.50;0.50;;;;;;;;;;4988933;28;20469;-81
2023/01/16 07:59:19;;;;;;;2.83;0.38;;;;;;;;;;4988183;28;20574;-82
2023/01/16 08:01:46;;;;;;;0.38;0.30;;;;;;;;;;4987813;28;20085;-81
2023/01/16 08:04:12;;;;;;;1.38;0.50;;;;;;;;;;4986683;28;20544;-82
2023/01/16 08:06:42;;;;;;;0.45;0.40;;;;;;;;;;4987125;28;20113;-81
2023/01/16 08:09:08;;;;;;;0.88;0.32;;;;;;;;;;4987120;28;20034;-81
2023/01/16 08:11:38;;;;;;;2.45;0.52;;;;;;;;;;4987952;28;20043;-81
2023/01/16 08:14:05;;;;;;;0.20;0.20;;;;;;;;;;4986565;28;20030;-81
2023/01/16 08:16:30;;;;;;;1.92;0.55;;;;;;;;;;4986974;28;20022;-81
2023/01/16 08:18:55;;;;;;;0.73;0.73;;;;;;;;;;4998436;28;20828;-81
2023/01/16 08:21:21;;;;;;;3.78;0.35;;;;;;;;;;5002660;28;20041;-81
2023/01/16 08:23:46;;;;;;;0.20;0.20;;;;;;;;;;5007209;28;20057;-81
2023/01/16 08:26:13;;;;;;;0.90;0.90;;;;;;;;;;5006145;28;20399;-81
2023/01/16 08:28:38;;;;;;;0.20;0.20;;;;;;;;;;5008000;28;20083;-81
2023/01/16 08:31:11;;;;;;;0.30;0.30;;;;;;;;;;5005167;28;20771;-81
2023/01/16 08:33:38;;;;;;;0.52;0.20;;;;;;;;;;5007181;28;20688;-81
2023/01/16 08:36:05;;;;;;;0.80;0.22;;;;;;;;;;5006160;28;20502;-81
2023/01/16 08:38:31;;;;;;;0.30;0.30;;;;;;;;;;5006594;28;20041;-81
2023/01/16 08:40:56;;;;;;;0.30;0.30;;;;;;;;;;5007736;28;20022;-80
2023/01/16 08:51:56;;;;;;;6.60;3.50;;;;;;;;;;5008370;28;20547;-81
2023/01/16 08:54:22;;;;;;;7.60;3.20;;;;;;;;;;5008287;28;20037;-81
2023/01/16 08:56:47;;;;;;;5.72;2.45;;;;;;;;;;5006339;28;20033;-81
2023/01/16 08:59:12;;;;;;;1.08;0.47;;;;;;;;;;5007554;28;20030;-81
2023/01/16 09:01:39;;;;;;;0.30;0.28;;;;;;;;;;5001751;28;20014;-80
2023/01/16 09:04:05;;;;;;;0.57;0.30;;;;;;;;;;5005284;28;20030;-81
2023/01/16 09:06:31;;;;;;;0.90;0.32;;;;;;;;;;5005042;28;20061;-80
2023/01/16 09:08:56;;;;;;;0.40;0.35;;;;;;;;;;5005804;28;20050;-81
2023/01/16 09:14:05;;;;;;;1.08;0.73;;;;;;;;;;5006609;28;20032;-80
2023/01/16 09:16:31;;;;;;;0.77;0.30;;;;;;;;;;5007128;28;20112;-81
2023/01/16 09:18:56;;;;;;;0.90;0.60;;;;;;;;;;5003752;28;20551;-81
2023/01/16 09:21:24;;;;;;;1.20;0.60;;;;;;;;;;5006709;28;20050;-81
2023/01/16 09:23:51;;;;;;;0.45;0.45;;;;;;;;;;5002833;28;20614;-81
2023/01/16 09:26:17;;;;;;;0.20;0.20;;;;;;;;;;5007313;28;20041;-80
2023/01/16 09:28:43;;;;;;;0.52;0.40;;;;;;;;;;5007417;28;20052;-81
2023/01/16 09:31:09;;;;;;;0.40;0.40;;;;;;;;;;5006359;28;20038;-80
2023/01/16 09:33:34;;;;;;;2.63;0.50;;;;;;;;;;5005048;28;20069;-81
2023/01/16 09:36:00;;;;;;;0.40;0.28;;;;;;;;;;5004885;28;20022;-81
2023/01/16 09:38:27;;;;;;;0.20;0.20;;;;;;;;;;5006641;28;20099;-81
2023/01/16 09:40:55;;;;;;;0.50;0.30;;;;;;;;;;5005996;28;20568;-81
2023/01/16 09:45:53;;;;;;;0.30;0.30;;;;;;;;;;4888555;23;20046;-76
2023/01/16 09:48:26;;;;;;;0.20;0.20;;;;;;;;;;4954540;28;20050;-73
2023/01/16 09:50:54;;;;;;;0.20;0.20;;;;;;;;;;4947673;29;20039;-73
2023/01/16 09:59:23;;;;;;;0.20;0.20;;;;;;;;;;4947316;28;20420;-73
2023/01/16 10:02:15;;;;;;;;;;;;;;;;;;4947349;29;20030;-73
2023/01/16 10:04:42;;;;;;;0.17;0.17;;;;;;;;;;4900731;29;20555;-73
2023/01/16 10:07:32;;;;;;;0.20;0.20;;;;;;;;;;4943280;28;20031;-74
2023/01/16 10:10:25;;;;;;;0.10;0.10;;;;;;;;;;4927733;29;20042;-73
2023/01/16 10:12:59;;;;;;;0.30;0.30;;;;;;;;;;4928243;29;20052;-73
2023/01/16 10:15:43;;;;;;;0.75;0.75;;;;;;;;;;4935876;28;20036;-74
2023/01/16 10:18:44;;;;;;;0.93;0.35;;;;;;;;;;4951128;28;20061;-73
2023/01/16 10:21:22;;;;;;;1.10;0.50;;;;;;;;;;4950393;28;20047;-73
2023/01/16 10:24:01;;;;;;;0.20;0.20;;;;;;;;;;4938452;28;20036;-73
2023/01/16 10:26:40;;;;;;;0.28;0.28;;;;;;;;;;4927127;29;20102;-73
2023/01/16 10:29:20;;;;;;;0.20;0.20;;;;;;;;;;4927875;29;20382;-73
2023/01/16 10:31:57;;;;;;;0.70;0.35;;;;;;;;;;4928416;29;20031;-73
2023/01/16 10:34:28;;;;;;;0.85;0.73;;;;;;;;;;4927315;29;20040;-73
2023/01/16 10:36:57;;;;;;;0.30;0.30;;;;;;;;;;4934767;28;20043;-73
2023/01/16 10:39:28;;;;;;;0.32;0.32;;;;;;;;;;4963177;28;20110;-73
2023/01/16 10:50:35;;;;;;;0.65;0.40;;;;;;;;;;4948231;28;20101;-73
2023/01/16 10:53:02;;;;;;;0.32;0.30;;;;;;;;;;4946709;28;20023;-73
2023/01/16 10:55:27;;;;;;;0.63;0.52;;;;;;;;;;4947363;28;20031;-73
2023/01/16 10:57:56;;;;;;;0.80;0.65;;;;;;;;;;4947035;29;20464;-73
2023/01/16 11:00:29;;;;;;;1.00;0.45;;;;;;;;;;4947101;28;20067;-73
2023/01/16 11:03:00;;;;;;;1.00;0.85;;;;;;;;;;4929404;29;20031;-73
2023/01/16 11:05:32;;;;;;;1.70;0.85;;;;;;;;;;4943261;29;20035;-73
2023/01/16 11:08:13;;;;;;;7.53;3.20;;;;;;;;;;4927423;29;20035;-73
2023/01/16 11:10:41;;;;;;;3.17;1.02;;;;;;;;;;4942954;29;20184;-73
2023/01/16 11:18:56;;;;;;;1.70;0.88;;;;;;;;;;4938747;28;20101;-73
2023/01/16 11:21:27;;;;;;;0.95;0.95;;;;;;;;;;4944234;28;20051;-73
2023/01/16 11:24:15;;;;;;;1.63;0.90;;;;;;;;;;4940011;28;20053;-73
2023/01/16 11:26:46;;;;;;;1.75;0.98;;;;;;;;;;4926710;28;20039;-73
2023/01/16 11:29:20;;;;;;;0.60;0.45;;;;;;;;;;4946343;28;20471;-73
2023/01/16 11:31:57;;;;;;;1.60;0.68;;;;;;;;;;4938974;28;20032;-78
2023/01/16 11:34:26;;;;;;;0.43;0.40;;;;;;;;;;4944016;28;20042;-75
2023/01/16 11:36:54;;;;;;;1.42;0.50;;;;;;;;;;4930526;28;20061;-75
2023/01/16 11:39:23;;;;;;;0.63;0.63;;;;;;;;;;4919181;29;20036;-75
2023/01/16 11:41:53;;;;;;;0.45;0.40;;;;;;;;;;4924911;29;20457;-75
2023/01/16 11:47:15;;;;;;;0.30;0.28;;;;;;;;;;4927030;29;20506;-75
2023/01/16 11:49:46;;;;;;;0.23;0.23;;;;;;;;;;4946828;28;20875;-76
2023/01/16 11:52:29;;;;;;;2.60;1.27;;;;;;;;;;4947155;28;20039;-76
2023/01/16 11:55:03;;;;;;;0.98;0.82;;;;;;;;;;4959219;28;20031;-76
2023/01/16 11:57:43;;;;;;;1.92;0.93;;;;;;;;;;4950529;28;20538;-76
2023/01/16 12:00:33;;;;;;;0.73;0.63;;;;;;;;;;4932151;28;20106;-76
2023/01/16 12:03:17;;;;;;;2.22;0.60;;;;;;;;;;4932204;29;20047;-76
2023/01/16 12:06:15;;;;;;;0.90;0.30;;;;;;;;;;4947808;28;20068;-76
2023/01/16 12:08:49;;;;;;;3.95;0.98;;;;;;;;;;4942174;28;20031;-76
2023/01/16 12:11:53;;;;;;;13.98;3.13;;;;;;;;;;4942333;28;20093;-76
2023/01/16 12:14:37;;;;;;;15.45;3.88;;;;;;;;;;4901810;28;20039;-76
2023/01/16 12:17:26;;;;;;;15.93;4.40;;;;;;;;;;4942782;28;20071;-76
2023/01/16 12:20:04;;;;;;;7.38;3.55;;;;;;;;;;4928527;29;20055;-76
2023/01/16 12:22:45;;;;;;;2.88;1.95;;;;;;;;;;4945403;28;20564;-76
2023/01/16 12:25:50;;;;;;;8.55;3.35;;;;;;;;;;4939668;28;20083;-76
2023/01/16 12:28:16;;;;;;;7.43;2.65;;;;;;;;;;4921171;28;20109;-76
2023/01/16 12:30:47;;;;;;;4.20;1.83;;;;;;;;;;4923642;28;20047;-76
2023/01/16 12:33:42;;;;;;;1.48;1.00;;;;;;;;;;4936386;28;20047;-76
2023/01/16 12:36:16;;;;;;;2.00;1.08;;;;;;;;;;4928306;28;20567;-76
2023/01/16 12:38:56;;;;;;;;;;;;;;;;;;4939742;28;20451;-76
2023/01/16 12:44:23;;;;;;;1.17;0.63;;;;;;;;;;4944151;28;20042;-76
2023/01/16 12:46:54;;;;;;;1.15;0.70;;;;;;;;;;4944215;28;20031;-76
2023/01/16 12:49:58;;;;;;;4.30;1.50;;;;;;;;;;4942496;28;20121;-76
2023/01/16 12:52:57;;;;;;;1.63;1.02;;;;;;;;;;4945397;28;20073;-76
2023/01/16 12:55:42;;;;;;;2.05;1.10;;;;;;;;;;4942841;28;20047;-76
2023/01/16 12:58:23;;;;;;;0.65;0.50;;;;;;;;;;4930903;28;20127;-76
2023/01/16 13:01:11;;;;;;;0.55;0.55;;;;;;;;;;4930977;28;20045;-78
2023/01/16 13:03:40;;;;;;;1.00;0.60;;;;;;;;;;4924505;29;20035;-77
2023/01/16 13:06:13;;;;;;;1.23;0.73;;;;;;;;;;4938514;28;20083;-77
2023/01/16 13:08:45;;;;;;;1.20;0.90;;;;;;;;;;4940741;28;20037;-77
2023/01/16 13:14:10;;;;;;;2.10;0.88;;;;;;;;;;4946528;28;20456;-75
2023/01/16 13:16:48;;;;;;;2.40;0.90;;;;;;;;;;4933161;28;20031;-75
2023/01/16 13:19:27;;;;;;;2.58;1.13;;;;;;;;;;4923971;29;20079;-76
2023/01/16 13:22:18;;;;;;;1.73;1.00;;;;;;;;;;4945629;28;20101;-75
2023/01/16 13:24:55;;;;;;;1.63;0.80;;;;;;;;;;4944198;28;20113;-75
2023/01/16 13:27:31;;;;;;;1.65;0.90;;;;;;;;;;4947101;28;20415;-75
2023/01/16 13:30:03;;;;;;;1.20;0.73;;;;;;;;;;4928890;29;20066;-75
2023/01/16 13:32:33;;;;;;;1.33;0.93;;;;;;;;;;4942071;28;21070;-75
2023/01/16 13:35:05;;;;;;;2.13;0.88;;;;;;;;;;4925236;29;20032;-75
2023/01/16 13:37:50;;;;;;;1.80;1.30;;;;;;;;;;4928042;29;20039;-75
2023/01/16 13:41:06;;;;;;;1.30;1.20;;;;;;;;;;4921901;29;20048;-76
2023/01/16 13:46:19;;;;;;;1.60;1.10;;;;;;;;;;4963033;28;20124;-75
2023/01/16 13:48:52;;;;;;;1.42;1.10;;;;;;;;;;4978155;28;20038;-75
2023/01/16 13:51:19;;;;;;;2.70;1.17;;;;;;;;;;4966856;28;20069;-75
2023/01/16 13:53:49;;;;;;;2.22;1.55;;;;;;;;;;4952663;28;20282;-75
2023/01/16 13:56:22;;;;;;;1.75;1.33;;;;;;;;;;4944475;28;20152;-75
2023/01/16 13:58:53;;;;;;;2.15;1.20;;;;;;;;;;4960767;28;20030;-74
2023/01/16 14:01:41;;;;;;;1.60;1.10;;;;;;;;;;4942749;28;20129;-76
2023/01/16 14:04:15;;;;;;;1.08;0.88;;;;;;;;;;4976955;28;20411;-75
2023/01/16 14:06:47;;;;;;;1.98;1.02;;;;;;;;;;4948876;28;20065;-75
2023/01/16 14:09:23;;;;;;;2.97;1.25;;;;;;;;;;4964760;28;20034;-74
2023/01/16 14:11:59;;;;;;;2.15;1.20;;;;;;;;;;4949277;28;20415;-75
2023/01/16 14:17:27;;;;;;;3.40;1.50;;;;;;;;;;4963104;28;20065;-74
2023/01/16 14:20:01;;;;;;;3.17;1.55;;;;;;;;;;4966427;28;20031;-73
2023/01/16 14:25:28;;;;;;;3.30;1.85;;;;;;;;;;4960957;28;20054;-73
2023/01/16 14:27:55;;;;;;;3.92;2.03;;;;;;;;;;4964788;28;20430;-73
2023/01/16 14:30:25;;;;;;;3.78;2.13;;;;;;;;;;4964666;28;20345;-73
2023/01/16 14:32:55;;;;;;;7.65;3.22;;;;;;;;;;4947717;28;20039;-73
2023/01/16 14:35:25;;;;;;;6.75;2.22;;;;;;;;;;4947930;28;20057;-73
2023/01/16 14:38:09;;;;;;;5.88;2.42;;;;;;;;;;4947253;28;20034;-73
2023/01/16 14:55:42;;;;;;;5.57;1.00;;;;;;;;;;4965950;28;20581;-72
2023/01/16 14:58:11;;;;;;;4.88;1.15;;;;;;;;;;4950467;28;20092;-74
2023/01/16 15:00:37;;;;;;;7.18;1.10;;;;;;;;;;4947694;28;20066;-74
2023/01/16 15:03:27;;;;;;;2.75;1.02;;;;;;;;;;4946863;28;20050;-75
2023/01/16 15:05:58;;;;;;;2.63;1.02;;;;;;;;;;4943000;28;20113;-75
2023/01/16 15:08:31;;;;;;;5.55;0.85;;;;;;;;;;4962117;28;20045;-74
2023/01/16 15:11:30;;;;;;;5.20;1.15;;;;;;;;;;4944425;28;20487;-75
2023/01/16 15:22:16;;;;;;;1.55;0.60;;;;;;;;;;4963865;28;20046;-74
2023/01/16 15:24:52;;;;;;;1.42;0.63;;;;;;;;;;4961884;28;20031;-73
2023/01/16 15:27:27;;;;;;;3.53;0.63;;;;;;;;;;4960600;28;20035;-73
2023/01/16 15:30:05;;;;;;;3.75;0.95;;;;;;;;;;4963574;28;20043;-76
2023/01/16 15:35:43;;;;;;;0.90;0.75;;;;;;;;;;4968718;28;20050;-76
2023/01/16 15:38:10;;;;;;;1.23;0.88;;;;;;;;;;4951352;28;20030;-76
2023/01/16 15:40:36;;;;;;;4.93;1.65;;;;;;;;;;4950977;28;20030;-76
2023/01/16 15:49:16;;;;;;;1.70;0.60;;;;;;;;;;4967910;28;20085;-77
2023/01/16 15:51:49;;;;;;;1.50;0.82;;;;;;;;;;4948270;28;20593;-77
2023/01/16 15:54:15;;;;;;;1.00;0.90;;;;;;;;;;4930939;28;20524;-77
2023/01/16 15:56:45;;;;;;;6.32;1.27;;;;;;;;;;4962213;28;20050;-76
2023/01/16 15:59:22;;;;;;;8.13;1.85;;;;;;;;;;4968640;28;20023;-76
2023/01/16 16:01:48;;;;;;;3.20;1.00;;;;;;;;;;4949574;28;20026;-76
2023/01/16 16:04:13;;;;;;;4.13;1.10;;;;;;;;;;4967032;28;20035;-75
2023/01/16 16:06:40;;;;;;;3.05;1.15;;;;;;;;;;4968338;28;20054;-76
2023/01/16 16:09:11;;;;;;;4.18;1.10;;;;;;;;;;4967863;28;20027;-75
2023/01/16 16:11:52;;;;;;;3.05;1.20;;;;;;;;;;4934956;28;20041;-75
2023/01/16 16:20:23;;;;;;;2.25;1.10;;;;;;;;;;4949293;28;20074;-75
2023/01/16 16:22:49;;;;;;;3.17;0.95;;;;;;;;;;4937253;28;20031;-76
2023/01/16 16:25:36;;;;;;;1.58;0.88;;;;;;;;;;4961640;28;20062;-77
2023/01/16 16:28:16;;;;;;;6.78;1.15;;;;;;;;;;4962861;28;20039;-77
2023/01/16 16:30:42;;;;;;;3.50;0.63;;;;;;;;;;4967654;28;20054;-77
2023/01/16 16:33:18;;;;;;;1.75;1.05;;;;;;;;;;4967868;28;20031;-76
2023/01/16 16:35:49;;;;;;;2.05;0.80;;;;;;;;;;4966902;28;20043;-74
2023/01/16 16:38:21;;;;;;;0.90;0.80;;;;;;;;;;4967915;28;20034;-75
2023/01/16 16:41:07;;;;;;;2.47;0.90;;;;;;;;;;4950258;28;20023;-75
2023/01/16 16:43:58;;;;;;;0.70;0.60;;;;;;;;;;4974275;28;20050;-75
2023/01/16 16:46:23;;;;;;;3.80;1.10;;;;;;;;;;4966263;28;20081;-74
2023/01/16 16:48:57;;;;;;;0.43;0.43;;;;;;;;;;4967689;28;20054;-74
2023/01/16 16:51:30;;;;;;;1.92;1.13;;;;;;;;;;4966815;28;20130;-75
2023/01/16 16:54:08;;;;;;;0.85;0.60;;;;;;;;;;4950039;28;20035;-76
2023/01/16 16:56:36;;;;;;;2.83;0.90;;;;;;;;;;4966343;28;20050;-75